createdAt,value
2023-04-08T00:00:40.728Z,8.40
2023-04-08T00:03:08.601Z,8.43
2023-04-08T00:05:37.558Z,8.45
2023-04-08T00:08:05.264Z,8.38
2023-04-08T00:10:32.975Z,8.36
2023-04-08T00:13:01.604Z,8.34
2023-04-08T00:15:29.454Z,8.43
2023-04-08T00:17:57.088Z,8.38
2023-04-08T00:20:25.455Z,8.27
2023-04-08T00:22:54.448Z,8.25
2023-04-08T00:25:24.715Z,8.24
2023-04-08T00:27:53.312Z,8.21
2023-04-08T00:30:21.422Z,8.20
2023-04-08T00:32:49.162Z,8.26
2023-04-08T00:35:17.819Z,8.32
2023-04-08T00:37:45.908Z,8.34
2023-04-08T00:40:14.986Z,8.29
2023-04-08T00:42:42.967Z,8.23
2023-04-08T00:45:11.747Z,8.14
2023-04-08T00:47:39.515Z,8.05
2023-04-08T00:50:10.442Z,8.11
2023-04-08T00:52:38.019Z,8.13
2023-04-08T00:55:06.837Z,8.18
2023-04-08T00:57:36.395Z,8.15
2023-04-08T01:00:06.474Z,8.09
2023-04-08T01:02:40.390Z,8.05
2023-04-08T01:05:12.410Z,8.05
2023-04-08T01:07:46.728Z,8.01
2023-04-08T01:10:18.035Z,7.96
2023-04-08T01:12:52.737Z,7.92
2023-04-08T01:15:21.247Z,7.97
2023-04-08T01:17:51.416Z,7.92
2023-04-08T01:20:20.468Z,7.91
2023-04-08T01:23:03.780Z,7.82
2023-04-08T01:25:34.782Z,7.73
2023-04-08T01:28:07.174Z,7.79
2023-04-08T01:30:35.754Z,7.92
2023-04-08T01:33:04.943Z,8.00
2023-04-08T01:35:34.045Z,8.08
2023-04-08T01:38:03.861Z,8.12
2023-04-08T01:40:32.582Z,8.01
2023-04-08T01:43:01.714Z,7.79
2023-04-08T01:45:31.686Z,7.71
2023-04-08T01:48:01.064Z,7.71
2023-04-08T01:50:29.839Z,7.71
2023-04-08T01:53:00.122Z,7.75
2023-04-08T01:55:29.617Z,7.80
2023-04-08T01:58:00.753Z,7.81
2023-04-08T02:00:32.909Z,7.83
2023-04-08T02:03:02.145Z,7.79
2023-04-08T02:05:30.044Z,7.77
2023-04-08T02:07:57.596Z,7.79
2023-04-08T02:10:25.572Z,7.78
2023-04-08T02:12:53.343Z,7.73
2023-04-08T02:15:21.859Z,7.70
2023-04-08T02:17:53.051Z,7.73
2023-04-08T02:20:24.717Z,7.73
2023-04-08T02:22:58.847Z,7.76
2023-04-08T02:25:28.481Z,7.82
2023-04-08T02:27:57.380Z,7.78
2023-04-08T02:30:27.790Z,7.67
2023-04-08T02:32:59.213Z,7.69
2023-04-08T02:35:29.250Z,7.75
2023-04-08T02:37:56.916Z,7.80
2023-04-08T02:40:26.132Z,7.82
2023-04-08T02:42:54.329Z,7.88
2023-04-08T02:45:22.326Z,7.86
2023-04-08T02:47:51.812Z,7.83
2023-04-08T02:50:20.822Z,7.78
2023-04-08T02:52:48.429Z,7.72
2023-04-08T02:55:16.353Z,7.72
2023-04-08T02:57:44.251Z,7.61
2023-04-08T03:00:13.236Z,7.63
2023-04-08T03:02:41.229Z,7.66
2023-04-08T03:05:10.005Z,7.60
2023-04-08T03:07:39.169Z,7.57
2023-04-08T03:10:08.329Z,7.63
2023-04-08T03:12:36.240Z,7.70
2023-04-08T03:15:04.172Z,7.71
2023-04-08T03:17:33.656Z,7.66
2023-04-08T03:20:01.684Z,7.62
2023-04-08T03:22:29.386Z,7.61
2023-04-08T03:24:58.448Z,7.56
2023-04-08T03:27:26.346Z,7.47
2023-04-08T03:29:53.962Z,7.46
2023-04-08T03:32:21.743Z,7.47
2023-04-08T03:34:52.148Z,7.53
2023-04-08T03:37:20.135Z,7.58
2023-04-08T03:39:47.900Z,7.49
2023-04-08T03:42:16.824Z,7.46
2023-04-08T03:44:44.464Z,7.47
2023-04-08T03:47:13.653Z,7.44
2023-04-08T03:49:41.256Z,7.46
2023-04-08T03:52:09.056Z,7.52
2023-04-08T03:54:36.672Z,7.59
2023-04-08T03:57:04.292Z,7.59
2023-04-08T03:59:33.913Z,7.60
2023-04-08T04:02:01.816Z,7.52
2023-04-08T04:04:29.502Z,7.54
2023-04-08T04:06:57.172Z,7.49
2023-04-08T04:09:24.786Z,7.50
2023-04-08T04:11:52.395Z,7.54
2023-04-08T04:14:20.110Z,7.59
2023-04-08T04:16:49.057Z,7.59
2023-04-08T04:19:17.719Z,7.57
2023-04-08T04:21:45.528Z,7.57
2023-04-08T04:24:14.372Z,7.57
2023-04-08T04:26:42.304Z,7.58
2023-04-08T04:29:10.072Z,7.54
2023-04-08T04:31:38.091Z,7.43
2023-04-08T04:34:07.043Z,7.35
2023-04-08T04:36:34.725Z,7.37
2023-04-08T04:39:02.522Z,7.32
2023-04-08T04:41:30.309Z,7.36
2023-04-08T04:43:58.002Z,7.30
2023-04-08T04:46:25.668Z,7.27
2023-04-08T04:48:53.264Z,7.26
2023-04-08T04:51:22.211Z,7.26
2023-04-08T04:53:50.482Z,7.37
2023-04-08T04:56:18.087Z,7.44
2023-04-08T04:58:45.792Z,7.34
2023-04-08T05:01:13.535Z,7.31
2023-04-08T05:03:41.315Z,7.34
2023-04-08T05:06:08.919Z,7.30
2023-04-08T05:08:37.942Z,7.27
2023-04-08T05:11:06.175Z,7.28
2023-04-08T05:13:35.856Z,7.33
2023-04-08T05:16:03.599Z,7.39
2023-04-08T05:18:31.380Z,7.36
2023-04-08T05:20:59.694Z,7.29
2023-04-08T05:23:27.346Z,7.24
2023-04-08T05:25:56.503Z,7.28
2023-04-08T05:28:24.228Z,7.35
2023-04-08T05:30:54.759Z,7.23
2023-04-08T05:33:22.533Z,7.21
2023-04-08T05:35:50.413Z,7.25
2023-04-08T05:38:18.070Z,7.24
2023-04-08T05:40:45.724Z,7.27
2023-04-08T05:43:14.678Z,7.26
2023-04-08T05:45:42.269Z,7.25
2023-04-08T05:48:09.948Z,7.18
2023-04-08T05:50:37.627Z,7.20
2023-04-08T05:53:05.235Z,7.29
2023-04-08T05:55:32.851Z,7.24
2023-04-08T05:58:00.574Z,7.22
2023-04-08T06:00:29.528Z,7.20
2023-04-08T06:02:57.733Z,7.22
2023-04-08T06:05:25.957Z,7.21
2023-04-08T06:07:53.573Z,7.16
2023-04-08T06:10:21.240Z,7.04
2023-04-08T06:12:48.825Z,7.06
2023-04-08T06:15:16.671Z,7.07
2023-04-08T06:17:45.800Z,7.16
2023-04-08T06:20:13.462Z,7.20
2023-04-08T06:22:41.157Z,7.21
2023-04-08T06:25:09.537Z,7.28
2023-04-08T06:27:37.425Z,7.25
2023-04-08T06:30:05.550Z,7.26
2023-04-08T06:32:33.412Z,7.30
2023-04-08T06:35:02.462Z,7.22
2023-04-08T06:37:30.408Z,7.24
2023-04-08T06:39:58.029Z,7.28
2023-04-08T06:42:25.778Z,7.28
2023-04-08T06:44:54.528Z,7.27
2023-04-08T06:47:22.194Z,7.36
2023-04-08T06:49:49.836Z,7.43
2023-04-08T06:52:18.968Z,7.40
2023-04-08T06:54:46.939Z,7.42
2023-04-08T06:57:15.480Z,7.32
2023-04-08T06:59:43.133Z,7.31
2023-04-08T07:02:11.224Z,7.22
2023-04-08T07:04:39.109Z,7.26
2023-04-08T07:07:07.260Z,7.31
2023-04-08T07:09:36.955Z,7.26
2023-04-08T07:12:05.389Z,7.29
2023-04-08T07:14:33.139Z,7.29
2023-04-08T07:17:00.866Z,7.32
2023-04-08T07:19:28.599Z,7.37
2023-04-08T07:21:56.615Z,7.39
2023-04-08T07:24:24.424Z,7.45
2023-04-08T07:26:55.307Z,7.53
2023-04-08T07:29:23.928Z,7.59
2023-04-08T07:31:51.758Z,7.58
2023-04-08T07:34:19.424Z,7.54
2023-04-08T07:36:47.083Z,7.55
2023-04-08T07:39:14.720Z,7.64
2023-04-08T07:41:42.523Z,7.76
2023-04-08T07:44:11.483Z,7.85
2023-04-08T07:46:39.494Z,7.82
2023-04-08T07:49:07.372Z,7.78
2023-04-08T07:51:35.096Z,7.70
2023-04-08T07:54:03.131Z,7.60
2023-04-08T07:56:30.724Z,7.63
2023-04-08T07:58:58.397Z,7.66
2023-04-08T08:01:31.174Z,7.71
2023-04-08T08:03:59.122Z,7.85
2023-04-08T08:06:27.526Z,7.84
2023-04-08T08:08:55.233Z,7.82
2023-04-08T08:11:23.449Z,7.83
2023-04-08T08:13:52.677Z,7.73
2023-04-08T08:16:20.774Z,7.71
2023-04-08T08:18:50.279Z,7.79
2023-04-08T08:21:18.252Z,7.83
2023-04-08T08:23:46.286Z,7.87
2023-04-08T08:26:13.914Z,7.79
2023-04-08T08:28:41.593Z,7.70
2023-04-08T08:31:09.291Z,7.71
2023-04-08T08:33:36.975Z,7.72
2023-04-08T08:36:07.334Z,7.73
2023-04-08T08:38:35.266Z,7.82
2023-04-08T08:41:04.021Z,7.77
2023-04-08T08:43:33.413Z,7.79
2023-04-08T08:46:01.446Z,7.70
2023-04-08T08:48:31.224Z,7.73
2023-04-08T08:50:58.962Z,7.83
2023-04-08T08:53:35.126Z,7.94
2023-04-08T08:58:34.710Z,7.93
2023-04-08T09:01:02.544Z,7.92
2023-04-08T09:03:30.651Z,7.84
2023-04-08T09:06:00.234Z,7.84
2023-04-08T09:08:31.269Z,7.82
2023-04-08T09:11:12.472Z,7.88
2023-04-08T09:13:40.407Z,7.84
2023-04-08T09:16:10.209Z,7.86
2023-04-08T09:18:39.065Z,7.96
2023-04-08T09:21:08.366Z,8.05
2023-04-08T09:23:46.869Z,8.21
2023-04-08T09:26:16.226Z,8.26
2023-04-08T09:28:45.729Z,8.28
2023-04-08T09:31:24.956Z,8.22
2023-04-08T09:33:55.321Z,8.25
2023-04-08T09:36:23.259Z,8.28
2023-04-08T09:38:52.622Z,8.23
2023-04-08T09:41:24.317Z,8.15
2023-04-08T09:43:54.273Z,8.11
2023-04-08T09:46:30.414Z,8.08
2023-04-08T09:49:06.302Z,8.10
2023-04-08T09:51:39.269Z,8.20
2023-04-08T09:54:15.696Z,8.17
2023-04-08T09:56:48.852Z,8.16
2023-04-08T09:59:21.529Z,8.21
2023-04-08T10:01:53.938Z,8.25
2023-04-08T10:04:24.322Z,8.26
2023-04-08T10:06:55.562Z,8.26
2023-04-08T10:09:24.732Z,8.36
2023-04-08T10:11:54.927Z,8.37
2023-04-08T10:14:22.704Z,8.38
2023-04-08T10:16:50.475Z,8.36
2023-04-08T10:19:42.970Z,8.41
2023-04-08T10:22:49.116Z,8.32
2023-04-08T10:25:32.211Z,8.28
2023-04-08T10:28:00.560Z,8.29
2023-04-08T10:30:40.513Z,8.33
2023-04-08T10:33:12.167Z,8.47
2023-04-08T10:35:46.100Z,8.47
2023-04-08T10:38:14.391Z,8.41
2023-04-08T10:40:44.667Z,8.40
2023-04-08T10:43:13.538Z,8.38
2023-04-08T10:45:42.613Z,8.38
2023-04-08T10:48:14.754Z,8.48
2023-04-08T10:50:42.946Z,8.53
2023-04-08T10:53:11.713Z,8.55
2023-04-08T10:55:40.008Z,8.56
2023-04-08T10:58:11.140Z,8.59
2023-04-08T11:00:40.253Z,8.63
2023-04-08T11:03:09.868Z,8.67
2023-04-08T11:05:39.159Z,8.74
2023-04-08T11:08:07.234Z,8.72
2023-04-08T11:10:38.824Z,8.77
2023-04-08T11:13:10.689Z,8.78
2023-04-08T11:15:38.406Z,8.72
2023-04-08T11:18:07.123Z,8.64
2023-04-08T11:20:37.161Z,8.63
2023-04-08T11:23:04.854Z,8.61
2023-04-08T11:25:32.845Z,8.61
2023-04-08T11:28:01.206Z,8.67
2023-04-08T11:30:30.979Z,8.74
2023-04-08T11:32:58.832Z,8.78
2023-04-08T11:35:30.229Z,8.86
2023-04-08T11:37:58.964Z,8.89
2023-04-08T11:40:27.386Z,8.87
2023-04-08T11:42:55.283Z,8.83
2023-04-08T11:45:23.268Z,8.92
2023-04-08T11:47:53.047Z,8.98
2023-04-08T11:50:24.788Z,8.92
2023-04-08T11:52:53.821Z,8.72
2023-04-08T11:55:26.886Z,8.56
2023-04-08T11:57:56.321Z,8.66
2023-04-08T12:00:24.943Z,8.75
2023-04-08T12:02:53.986Z,8.82
2023-04-08T12:05:22.019Z,8.87
2023-04-08T12:07:49.776Z,8.82
2023-04-08T12:10:17.793Z,8.82
2023-04-08T12:12:45.480Z,8.78
2023-04-08T12:15:13.066Z,8.82
2023-04-08T12:17:40.816Z,8.90
2023-04-08T12:20:11.783Z,8.98
2023-04-08T12:22:39.917Z,9.05
2023-04-08T12:25:08.197Z,9.08
2023-04-08T12:27:36.047Z,9.03
2023-04-08T12:30:04.397Z,8.94
2023-04-08T12:32:32.177Z,8.90
2023-04-08T12:34:59.795Z,8.87
2023-04-08T12:37:28.887Z,8.79
2023-04-08T12:39:56.460Z,8.76
2023-04-08T12:42:24.337Z,8.72
2023-04-08T12:44:52.822Z,8.69
2023-04-08T12:47:20.891Z,8.67
2023-04-08T12:49:50.095Z,8.69
2023-04-08T12:52:18.717Z,8.75
2023-04-08T12:54:47.751Z,8.76
2023-04-08T12:57:15.429Z,8.78
2023-04-08T12:59:42.992Z,8.82
2023-04-08T13:02:10.943Z,8.80
2023-04-08T13:04:38.721Z,8.86
2023-04-08T13:07:07.499Z,8.89
2023-04-08T13:09:35.088Z,8.90
2023-04-08T13:12:04.886Z,8.91
2023-04-08T13:14:32.796Z,8.93
2023-04-08T13:17:00.458Z,8.94
2023-04-08T13:19:28.295Z,8.97
2023-04-08T13:21:55.940Z,8.92
2023-04-08T13:24:24.015Z,8.91
2023-04-08T13:26:51.700Z,8.96
2023-04-08T13:29:21.071Z,8.96
2023-04-08T13:31:48.836Z,9.04
2023-04-08T13:34:16.640Z,9.24
2023-04-08T13:36:44.499Z,9.35
2023-04-08T13:39:12.240Z,9.36
2023-04-08T13:41:40.001Z,9.31
2023-04-08T13:44:07.960Z,9.34
2023-04-08T13:46:37.120Z,9.42
2023-04-08T13:49:04.936Z,9.40
2023-04-08T13:51:32.534Z,9.50
2023-04-08T13:54:00.245Z,9.57
2023-04-08T13:56:27.927Z,9.45
2023-04-08T13:58:57.505Z,9.65
2023-04-08T14:01:25.747Z,9.79
2023-04-08T14:03:54.891Z,9.81
2023-04-08T14:06:22.651Z,9.72
2023-04-08T14:08:50.876Z,9.78
2023-04-08T14:11:18.789Z,9.87
2023-04-08T14:13:46.364Z,9.87
2023-04-08T14:16:14.361Z,9.73
2023-04-08T14:18:42.185Z,9.69
2023-04-08T14:21:12.734Z,9.60
2023-04-08T14:23:40.600Z,9.60
2023-04-08T14:26:08.539Z,9.62
2023-04-08T14:28:36.516Z,9.60
2023-04-08T14:31:06.258Z,9.59
2023-04-08T14:33:34.574Z,9.54
2023-04-08T14:36:02.374Z,9.49
2023-04-08T14:38:31.389Z,9.53
2023-04-08T14:40:59.217Z,9.52
2023-04-08T14:43:26.854Z,9.57
2023-04-08T14:45:55.519Z,9.61
2023-04-08T14:48:25.724Z,9.58
2023-04-08T14:50:53.519Z,9.56
2023-04-08T14:53:21.350Z,9.63
2023-04-08T14:55:50.389Z,9.61
2023-04-08T14:58:18.208Z,9.63
2023-04-08T15:00:47.720Z,9.68
2023-04-08T15:03:48.031Z,9.68
2023-04-08T15:06:18.636Z,9.62
2023-04-08T15:08:46.644Z,9.64
2023-04-08T15:11:16.050Z,9.65
2023-04-08T15:13:43.617Z,9.63
2023-04-08T15:16:11.334Z,9.62
2023-04-08T15:18:39.016Z,9.48
2023-04-08T15:21:07.017Z,9.46
2023-04-08T15:23:34.878Z,9.47
2023-04-08T15:26:02.903Z,9.40
2023-04-08T15:28:32.672Z,9.38
2023-04-08T15:31:00.311Z,9.39
2023-04-08T15:33:28.005Z,9.42
2023-04-08T15:35:57.429Z,9.48
2023-04-08T15:38:26.516Z,9.52
2023-04-08T15:40:54.421Z,9.49
2023-04-08T15:43:22.023Z,9.44
2023-04-08T15:45:51.105Z,9.39
2023-04-08T15:48:18.884Z,9.44
2023-04-08T15:50:46.552Z,9.47
2023-04-08T15:53:14.145Z,9.53
2023-04-08T15:55:44.804Z,9.58
2023-04-08T15:58:12.439Z,9.61
2023-04-08T16:00:40.305Z,9.63
2023-04-08T16:03:12.009Z,9.65
2023-04-08T16:05:41.579Z,9.62
2023-04-08T16:08:10.022Z,9.49
2023-04-08T16:10:37.636Z,9.53
2023-04-08T16:13:05.298Z,9.40
2023-04-08T16:15:34.039Z,9.38
2023-04-08T16:18:03.006Z,9.53
2023-04-08T16:20:31.988Z,9.62
2023-04-08T16:22:59.675Z,9.72
2023-04-08T16:25:28.463Z,9.85
2023-04-08T16:27:56.524Z,9.95
2023-04-08T16:30:24.134Z,9.91
2023-04-08T16:32:51.785Z,9.94
2023-04-08T16:35:20.539Z,9.83
2023-04-08T16:37:49.457Z,9.71
2023-04-08T16:40:17.487Z,9.72
2023-04-08T16:42:45.127Z,9.66
2023-04-08T16:45:12.941Z,9.41
2023-04-08T16:47:41.727Z,9.50
2023-04-08T16:50:09.968Z,9.61
2023-04-08T16:52:37.647Z,9.49
2023-04-08T16:55:07.837Z,9.33
2023-04-08T16:57:35.761Z,9.38
2023-04-08T17:00:03.665Z,9.19
2023-04-08T17:02:31.452Z,9.34
2023-04-08T17:05:00.676Z,9.41
2023-04-08T17:07:29.117Z,9.38
2023-04-08T17:09:56.899Z,9.38
2023-04-08T17:12:25.918Z,9.43
2023-04-08T17:14:53.651Z,9.34
2023-04-08T17:17:21.444Z,9.36
2023-04-08T17:19:49.243Z,9.30
2023-04-08T17:22:16.811Z,9.28
2023-04-08T17:24:47.825Z,9.14
2023-04-08T17:27:16.059Z,9.15
2023-04-08T17:29:45.060Z,9.07
2023-04-08T17:32:13.364Z,9.23
2023-04-08T17:34:41.407Z,9.22
2023-04-08T17:37:10.105Z,9.16
2023-04-08T17:39:40.819Z,9.04
2023-04-08T17:42:08.751Z,9.05
2023-04-08T17:44:36.875Z,9.05
2023-04-08T17:47:05.880Z,9.03
2023-04-08T17:49:34.557Z,9.11
2023-04-08T17:52:02.195Z,9.07
2023-04-08T17:54:31.324Z,9.10
2023-04-08T17:56:59.101Z,9.11
2023-04-08T17:59:26.709Z,9.09
2023-04-08T18:01:54.630Z,9.09
2023-04-08T18:04:23.857Z,9.07
2023-04-08T18:06:52.565Z,8.99
2023-04-08T18:09:20.147Z,9.06
2023-04-08T18:11:47.831Z,9.06
2023-04-08T18:14:16.480Z,9.11
2023-04-08T18:16:44.175Z,9.05
2023-04-08T18:19:13.627Z,9.06
2023-04-08T18:21:42.695Z,9.04
2023-04-08T18:24:10.334Z,9.04
2023-04-08T18:26:37.918Z,9.04
2023-04-08T18:29:06.678Z,9.04
2023-04-08T18:31:34.362Z,9.04
2023-04-08T18:34:02.057Z,9.01
2023-04-08T18:36:29.838Z,9.01
2023-04-08T18:38:58.929Z,8.99
2023-04-08T18:41:27.833Z,8.97
2023-04-08T18:43:55.915Z,8.98
2023-04-08T18:46:24.467Z,8.97
2023-04-08T18:48:52.248Z,9.11
2023-04-08T18:51:19.956Z,9.34
2023-04-08T18:53:47.910Z,9.41
2023-04-08T18:56:18.405Z,9.31
2023-04-08T18:58:46.937Z,9.27
2023-04-08T19:01:16.122Z,9.20
2023-04-08T19:03:44.228Z,9.24
2023-04-08T19:06:13.986Z,9.25
2023-04-08T19:08:42.628Z,9.26
2023-04-08T19:11:10.337Z,9.27
2023-04-08T19:13:39.851Z,9.28
2023-04-08T19:16:08.284Z,9.24
2023-04-08T19:18:36.036Z,9.28
2023-04-08T19:21:07.337Z,9.30
2023-04-08T19:23:34.982Z,9.31
2023-04-08T19:26:06.013Z,9.31
2023-04-08T19:28:33.758Z,9.31
2023-04-08T19:31:03.007Z,9.31
2023-04-08T19:33:31.339Z,9.31
2023-04-08T19:35:58.977Z,9.37
2023-04-08T19:38:26.861Z,9.41
2023-04-08T19:40:54.432Z,9.41
2023-04-08T19:43:22.079Z,9.34
2023-04-08T19:45:54.004Z,9.34
2023-04-08T19:48:22.968Z,9.30
2023-04-08T19:50:52.083Z,9.26
2023-04-08T19:53:20.049Z,9.21
2023-04-08T19:55:47.886Z,9.17
2023-04-08T19:58:15.923Z,9.19
2023-04-08T20:00:43.551Z,9.19
2023-04-08T20:03:15.355Z,9.15
2023-04-08T20:05:46.631Z,9.16
2023-04-08T20:08:15.779Z,9.16
2023-04-08T20:10:43.472Z,9.16
2023-04-08T20:13:11.060Z,9.20
2023-04-08T20:15:39.559Z,9.19
2023-04-08T20:18:07.808Z,9.19
2023-04-08T20:20:35.713Z,9.15
2023-04-08T20:23:04.785Z,9.08
2023-04-08T20:25:40.113Z,9.02
2023-04-08T20:28:08.276Z,8.94
2023-04-08T20:30:36.177Z,8.89
2023-04-08T20:33:05.200Z,8.84
2023-04-08T20:35:33.226Z,8.79
2023-04-08T20:38:05.764Z,8.78
2023-04-08T20:40:36.648Z,8.77
2023-04-08T20:43:04.928Z,8.80
2023-04-08T20:45:32.956Z,8.83
2023-04-08T20:48:01.617Z,8.84
2023-04-08T20:50:30.261Z,8.86
2023-04-08T20:52:58.401Z,8.88
2023-04-08T20:55:27.863Z,8.89
2023-04-08T20:57:57.242Z,8.93
2023-04-08T21:00:25.394Z,8.96
2023-04-08T21:02:53.527Z,9.01
2023-04-08T21:05:21.996Z,8.96
2023-04-08T21:07:49.932Z,8.91
2023-04-08T21:10:18.452Z,8.91
2023-04-08T21:12:46.485Z,8.90
2023-04-08T21:15:15.723Z,8.88
2023-04-08T21:17:44.319Z,8.85
2023-04-08T21:20:13.358Z,8.83
2023-04-08T21:22:41.299Z,8.78
2023-04-08T21:25:09.411Z,8.75
2023-04-08T21:27:37.624Z,8.67
2023-04-08T21:30:07.656Z,8.67
2023-04-08T21:32:36.704Z,8.67
2023-04-08T21:35:04.906Z,8.58
2023-04-08T21:37:33.713Z,8.58
2023-04-08T21:40:01.511Z,8.58
2023-04-08T21:42:29.151Z,8.56
2023-04-08T21:44:57.067Z,8.55
2023-04-08T21:47:24.967Z,8.50
2023-04-08T21:49:55.727Z,8.43
2023-04-08T21:52:23.489Z,8.40
2023-04-08T21:54:51.666Z,8.37
2023-04-08T21:57:20.046Z,8.37
2023-04-08T21:59:47.813Z,8.38
2023-04-08T22:02:15.883Z,8.35
2023-04-08T22:04:44.568Z,8.29
2023-04-08T22:07:13.757Z,8.21
2023-04-08T22:09:41.954Z,8.23
2023-04-08T22:12:10.655Z,8.15
2023-04-08T22:14:39.073Z,8.19
2023-04-08T22:17:07.116Z,8.16
2023-04-08T22:19:34.903Z,8.15
2023-04-08T22:22:02.658Z,8.13
2023-04-08T22:24:31.750Z,8.15
2023-04-08T22:26:59.491Z,8.20
2023-04-08T22:29:27.425Z,8.27
2023-04-08T22:31:55.299Z,8.12
2023-04-08T22:34:23.142Z,8.12
2023-04-08T22:36:51.009Z,8.05
2023-04-08T22:39:18.658Z,8.11
2023-04-08T22:41:47.812Z,8.18
2023-04-08T22:44:15.695Z,8.25
2023-04-08T22:46:43.470Z,8.26
2023-04-08T22:49:11.198Z,8.21
2023-04-08T22:51:39.282Z,8.21
2023-04-08T22:54:07.352Z,8.16
2023-04-08T22:56:35.680Z,8.18
2023-04-08T22:59:04.907Z,8.18
2023-04-08T23:01:32.926Z,8.17
2023-04-08T23:04:01.590Z,8.15
2023-04-08T23:06:29.551Z,8.17
2023-04-08T23:08:57.415Z,8.16
2023-04-08T23:11:25.933Z,8.11
2023-04-08T23:13:54.082Z,8.07
2023-04-08T23:16:23.306Z,8.06
2023-04-08T23:18:52.034Z,8.08
2023-04-08T23:21:23.452Z,8.10
2023-04-08T23:23:53.589Z,8.10
2023-04-08T23:26:22.128Z,8.08
2023-04-08T23:28:50.897Z,8.05
2023-04-08T23:31:19.189Z,8.06
2023-04-08T23:33:48.455Z,7.98
2023-04-08T23:36:16.370Z,7.75
2023-04-08T23:38:53.492Z,7.81
2023-04-08T23:41:23.109Z,7.72
2023-04-08T23:43:52.641Z,7.66
2023-04-08T23:46:20.493Z,7.53
2023-04-08T23:48:50.308Z,7.34
2023-04-08T23:51:18.549Z,7.28
2023-04-08T23:53:47.776Z,7.19
2023-04-08T23:56:15.798Z,7.19
2023-04-08T23:58:46.334Z,7.10
